sensor_id;sensor_type;location;lat;lon;timestamp;pressure;altitude;pressure_sealevel;temperature;humidity
13604;BME280;24578;48.264;11.436;2022-08-19T00:01:02;95668.03;;;17.28;100.00
13604;BME280;24578;48.264;11.436;2022-08-19T00:04:04;95680.78;;;17.31;100.00
13604;BME280;24578;48.264;11.436;2022-08-19T00:07:05;95686.47;;;17.35;100.00
13604;BME280;24578;48.264;11.436;2022-08-19T00:10:06;95690.53;;;17.38;100.00
13604;BME280;24578;48.264;11.436;2022-08-19T00:13:06;95694.66;;;17.40;100.00
13604;BME280;24578;48.264;11.436;2022-08-19T00:16:07;95680.75;;;17.40;100.00
13604;BME280;24578;48.264;11.436;2022-08-19T00:19:07;95682.22;;;17.42;100.00
13604;BME280;24578;48.264;11.436;2022-08-19T00:22:08;95686.63;;;17.42;100.00
13604;BME280;24578;48.264;11.436;2022-08-19T00:25:08;95677.97;;;17.41;100.00
13604;BME280;24578;48.264;11.436;2022-08-19T00:28:08;95673.03;;;17.46;100.00
13604;BME280;24578;48.264;11.436;2022-08-19T00:31:09;95673.19;;;17.53;100.00
13604;BME280;24578;48.264;11.436;2022-08-19T00:34:10;95672.88;;;17.48;100.00
13604;BME280;24578;48.264;11.436;2022-08-19T00:37:11;95653.88;;;17.54;100.00
13604;BME280;24578;48.264;11.436;2022-08-19T00:40:12;95651.59;;;17.59;100.00
13604;BME280;24578;48.264;11.436;2022-08-19T00:43:12;95634.56;;;17.63;100.00
13604;BME280;24578;48.264;11.436;2022-08-19T00:46:13;95645.50;;;17.67;100.00
13604;BME280;24578;48.264;11.436;2022-08-19T00:49:20;95649.09;;;17.66;100.00
13604;BME280;24578;48.264;11.436;2022-08-19T00:52:23;95652.69;;;17.65;100.00
13604;BME280;24578;48.264;11.436;2022-08-19T00:55:25;95653.53;;;17.65;100.00
13604;BME280;24578;48.264;11.436;2022-08-19T00:58:27;95636.50;;;17.70;100.00
13604;BME280;24578;48.264;11.436;2022-08-19T01:01:28;95634.53;;;17.72;100.00
13604;BME280;24578;48.264;11.436;2022-08-19T01:04:28;95624.69;;;17.74;100.00
13604;BME280;24578;48.264;11.436;2022-08-19T01:07:28;95627.63;;;17.79;100.00
13604;BME280;24578;48.264;11.436;2022-08-19T01:10:29;95640.19;;;17.84;100.00
13604;BME280;24578;48.264;11.436;2022-08-19T01:13:32;95644.28;;;17.86;100.00
13604;BME280;24578;48.264;11.436;2022-08-19T01:16:33;95639.88;;;17.87;100.00
13604;BME280;24578;48.264;11.436;2022-08-19T01:19:35;95625.78;;;17.88;100.00
13604;BME280;24578;48.264;11.436;2022-08-19T01:22:38;95616.78;;;17.90;100.00
13604;BME280;24578;48.264;11.436;2022-08-19T01:25:44;95626.72;;;17.95;100.00
13604;BME280;24578;48.264;11.436;2022-08-19T01:28:46;95642.94;;;17.90;100.00
13604;BME280;24578;48.264;11.436;2022-08-19T01:31:46;95649.16;;;17.89;100.00
13604;BME280;24578;48.264;11.436;2022-08-19T01:34:46;95640.00;;;17.93;100.00
13604;BME280;24578;48.264;11.436;2022-08-19T01:37:48;95623.63;;;17.91;100.00
13604;BME280;24578;48.264;11.436;2022-08-19T01:40:48;95632.13;;;17.93;100.00
13604;BME280;24578;48.264;11.436;2022-08-19T01:43:49;95640.97;;;17.92;100.00
13604;BME280;24578;48.264;11.436;2022-08-19T01:46:49;95649.63;;;17.93;100.00
13604;BME280;24578;48.264;11.436;2022-08-19T01:49:50;95650.81;;;17.90;100.00
13604;BME280;24578;48.264;11.436;2022-08-19T01:52:50;95659.31;;;17.92;100.00
13604;BME280;24578;48.264;11.436;2022-08-19T01:55:50;95654.06;;;17.92;100.00
13604;BME280;24578;48.264;11.436;2022-08-19T01:58:53;95659.63;;;17.89;100.00
13604;BME280;24578;48.264;11.436;2022-08-19T02:01:53;95664.06;;;17.89;100.00
13604;BME280;24578;48.264;11.436;2022-08-19T02:04:54;95663.25;;;17.88;100.00
13604;BME280;24578;48.264;11.436;2022-08-19T02:07:54;95645.75;;;17.89;100.00
13604;BME280;24578;48.264;11.436;2022-08-19T02:10:54;95634.28;;;17.90;100.00
13604;BME280;24578;48.264;11.436;2022-08-19T02:13:55;95629.84;;;17.90;100.00
13604;BME280;24578;48.264;11.436;2022-08-19T02:16:55;95632.16;;;17.85;100.00
13604;BME280;24578;48.264;11.436;2022-08-19T02:19:56;95637.59;;;17.84;100.00
13604;BME280;24578;48.264;11.436;2022-08-19T02:22:56;95646.75;;;17.79;100.00
13604;BME280;24578;48.264;11.436;2022-08-19T02:25:56;95652.03;;;17.71;100.00
13604;BME280;24578;48.264;11.436;2022-08-19T02:28:56;95657.78;;;17.67;100.00
13604;BME280;24578;48.264;11.436;2022-08-19T02:31:57;95666.31;;;17.60;100.00
13604;BME280;24578;48.264;11.436;2022-08-19T02:34:57;95672.34;;;17.61;100.00
13604;BME280;24578;48.264;11.436;2022-08-19T02:37:58;95666.94;;;17.62;100.00
13604;BME280;24578;48.264;11.436;2022-08-19T02:41:18;95656.44;;;17.71;100.00
13604;BME280;24578;48.264;11.436;2022-08-19T02:44:18;95655.97;;;17.67;100.00
13604;BME280;24578;48.264;11.436;2022-08-19T02:47:18;95665.13;;;17.71;100.00
13604;BME280;24578;48.264;11.436;2022-08-19T02:50:19;95657.41;;;17.70;100.00
13604;BME280;24578;48.264;11.436;2022-08-19T02:53:19;95660.03;;;17.70;100.00
13604;BME280;24578;48.264;11.436;2022-08-19T02:56:19;95649.09;;;17.74;100.00
13604;BME280;24578;48.264;11.436;2022-08-19T02:59:20;95645.31;;;17.77;100.00
13604;BME280;24578;48.264;11.436;2022-08-19T03:02:20;95633.66;;;17.79;100.00
13604;BME280;24578;48.264;11.436;2022-08-19T03:05:21;95620.06;;;17.84;100.00
13604;BME280;24578;48.264;11.436;2022-08-19T03:08:21;95625.28;;;17.84;100.00
13604;BME280;24578;48.264;11.436;2022-08-19T03:11:25;95630.19;;;17.87;100.00
13604;BME280;24578;48.264;11.436;2022-08-19T03:14:26;95623.47;;;17.93;100.00
13604;BME280;24578;48.264;11.436;2022-08-19T03:17:27;95611.06;;;17.87;100.00
13604;BME280;24578;48.264;11.436;2022-08-19T03:20:28;95622.66;;;17.92;100.00
13604;BME280;24578;48.264;11.436;2022-08-19T03:23:28;95630.31;;;17.94;100.00
13604;BME280;24578;48.264;11.436;2022-08-19T03:26:28;95632.28;;;17.92;100.00
13604;BME280;24578;48.264;11.436;2022-08-19T03:29:29;95650.00;;;17.90;100.00
13604;BME280;24578;48.264;11.436;2022-08-19T03:32:31;95654.75;;;17.86;100.00
13604;BME280;24578;48.264;11.436;2022-08-19T03:35:31;95658.00;;;17.88;100.00
13604;BME280;24578;48.264;11.436;2022-08-19T03:38:32;95662.44;;;17.88;100.00
13604;BME280;24578;48.264;11.436;2022-08-19T03:41:35;95675.41;;;17.81;100.00
13604;BME280;24578;48.264;11.436;2022-08-19T03:44:36;95674.38;;;17.90;100.00
13604;BME280;24578;48.264;11.436;2022-08-19T03:47:42;95662.91;;;17.91;100.00
13604;BME280;24578;48.264;11.436;2022-08-19T03:50:42;95664.53;;;17.92;100.00
13604;BME280;24578;48.264;11.436;2022-08-19T03:53:42;95656.50;;;17.94;100.00
13604;BME280;24578;48.264;11.436;2022-08-19T03:56:43;95654.88;;;17.93;100.00
13604;BME280;24578;48.264;11.436;2022-08-19T03:59:43;95651.13;;;17.95;100.00
13604;BME280;24578;48.264;11.436;2022-08-19T04:02:44;95649.78;;;18.00;100.00
13604;BME280;24578;48.264;11.436;2022-08-19T04:05:45;95645.06;;;18.03;100.00
13604;BME280;24578;48.264;11.436;2022-08-19T04:08:46;95650.44;;;18.02;100.00
13604;BME280;24578;48.264;11.436;2022-08-19T04:11:47;95643.25;;;17.95;100.00
13604;BME280;24578;48.264;11.436;2022-08-19T04:14:48;95641.13;;;17.91;100.00
13604;BME280;24578;48.264;11.436;2022-08-19T04:17:48;95642.94;;;17.90;100.00
13604;BME280;24578;48.264;11.436;2022-08-19T04:20:48;95647.41;;;17.81;100.00
13604;BME280;24578;48.264;11.436;2022-08-19T04:23:49;95646.25;;;17.84;100.00
13604;BME280;24578;48.264;11.436;2022-08-19T04:26:50;95646.25;;;17.84;100.00
13604;BME280;24578;48.264;11.436;2022-08-19T04:29:50;95640.16;;;17.92;100.00
13604;BME280;24578;48.264;11.436;2022-08-19T04:32:52;95632.44;;;17.99;100.00
13604;BME280;24578;48.264;11.436;2022-08-19T04:35:52;95637.19;;;17.95;100.00
13604;BME280;24578;48.264;11.436;2022-08-19T04:38:53;95641.31;;;17.98;100.00
13604;BME280;24578;48.264;11.436;2022-08-19T04:41:54;95644.06;;;17.96;100.00
13604;BME280;24578;48.264;11.436;2022-08-19T04:45:13;95646.88;;;17.94;100.00
13604;BME280;24578;48.264;11.436;2022-08-19T04:48:13;95659.94;;;17.94;100.00
13604;BME280;24578;48.264;11.436;2022-08-19T04:51:14;95665.84;;;17.96;100.00
13604;BME280;24578;48.264;11.436;2022-08-19T04:54:16;95669.94;;;17.99;100.00
13604;BME280;24578;48.264;11.436;2022-08-19T04:57:16;95680.41;;;17.91;100.00
13604;BME280;24578;48.264;11.436;2022-08-19T05:00:17;95680.41;;;17.91;100.00
13604;BME280;24578;48.264;11.436;2022-08-19T05:03:17;95682.34;;;17.97;100.00
13604;BME280;24578;48.264;11.436;2022-08-19T05:06:18;95685.16;;;17.95;100.00
13604;BME280;24578;48.264;11.436;2022-08-19T05:09:19;95692.66;;;17.99;100.00
13604;BME280;24578;48.264;11.436;2022-08-19T05:12:21;95699.03;;;17.96;100.00
13604;BME280;24578;48.264;11.436;2022-08-19T05:15:21;95704.47;;;17.94;100.00
13604;BME280;24578;48.264;11.436;2022-08-19T05:18:21;95717.56;;;17.94;100.00
13604;BME280;24578;48.264;11.436;2022-08-19T05:21:41;95714.94;;;17.94;100.00
13604;BME280;24578;48.264;11.436;2022-08-19T05:25:33;95719.00;;;17.97;100.00
13604;BME280;24578;48.264;11.436;2022-08-19T05:28:27;95723.31;;;17.90;100.00
13604;BME280;24578;48.264;11.436;2022-08-19T05:31:27;95721.94;;;17.94;100.00
13604;BME280;24578;48.264;11.436;2022-08-19T05:34:28;95715.72;;;17.95;100.00
13604;BME280;24578;48.264;11.436;2022-08-19T05:37:28;95712.63;;;18.00;100.00
13604;BME280;24578;48.264;11.436;2022-08-19T05:40:28;95703.47;;;18.04;100.00
13604;BME280;24578;48.264;11.436;2022-08-19T05:43:28;95691.00;;;18.06;100.00
13604;BME280;24578;48.264;11.436;2022-08-19T05:46:29;95683.81;;;18.08;100.00
13604;BME280;24578;48.264;11.436;2022-08-19T05:49:29;95683.94;;;18.15;100.00
13604;BME280;24578;48.264;11.436;2022-08-19T05:52:30;95688.19;;;18.16;100.00
13604;BME280;24578;48.264;11.436;2022-08-19T05:55:30;95687.03;;;18.18;100.00
13604;BME280;24578;48.264;11.436;2022-08-19T05:58:31;95679.63;;;18.22;100.00
13604;BME280;24578;48.264;11.436;2022-08-19T06:01:32;95688.50;;;18.21;100.00
13604;BME280;24578;48.264;11.436;2022-08-19T06:04:33;95689.63;;;18.18;100.00
13604;BME280;24578;48.264;11.436;2022-08-19T06:07:33;95686.22;;;18.18;100.00
13604;BME280;24578;48.264;11.436;2022-08-19T06:10:33;95689.47;;;18.20;100.00
13604;BME280;24578;48.264;11.436;2022-08-19T06:13:33;95688.63;;;18.28;100.00
13604;BME280;24578;48.264;11.436;2022-08-19T06:16:38;95684.84;;;18.30;100.00
13604;BME280;24578;48.264;11.436;2022-08-19T06:19:38;95685.16;;;18.27;100.00
13604;BME280;24578;48.264;11.436;2022-08-19T06:22:39;95688.25;;;18.31;100.00
13604;BME280;24578;48.264;11.436;2022-08-19T06:25:40;95701.19;;;18.32;100.00
13604;BME280;24578;48.264;11.436;2022-08-19T06:28:40;95716.72;;;18.34;100.00
13604;BME280;24578;48.264;11.436;2022-08-19T06:31:49;95710.03;;;18.31;100.00
13604;BME280;24578;48.264;11.436;2022-08-19T06:34:50;95712.00;;;18.29;100.00
13604;BME280;24578;48.264;11.436;2022-08-19T06:37:50;95706.97;;;18.19;100.00
13604;BME280;24578;48.264;11.436;2022-08-19T06:40:50;95713.06;;;18.20;100.00
13604;BME280;24578;48.264;11.436;2022-08-19T06:43:51;95710.56;;;18.26;100.00
13604;BME280;24578;48.264;11.436;2022-08-19T06:46:51;95710.84;;;18.32;100.00
13604;BME280;24578;48.264;11.436;2022-08-19T06:49:53;95708.94;;;18.25;100.00
13604;BME280;24578;48.264;11.436;2022-08-19T06:52:54;95713.19;;;18.26;100.00
13604;BME280;24578;48.264;11.436;2022-08-19T06:55:54;95706.59;;;18.31;100.00
13604;BME280;24578;48.264;11.436;2022-08-19T06:59:09;95709.56;;;18.28;100.00
13604;BME280;24578;48.264;11.436;2022-08-19T07:02:09;95715.50;;;18.21;100.00
13604;BME280;24578;48.264;11.436;2022-08-19T07:05:09;95705.47;;;18.25;100.00
13604;BME280;24578;48.264;11.436;2022-08-19T07:08:10;95707.44;;;18.23;100.00
13604;BME280;24578;48.264;11.436;2022-08-19T07:11:11;95698.25;;;18.27;100.00
13604;BME280;24578;48.264;11.436;2022-08-19T07:14:13;95698.72;;;18.31;100.00
13604;BME280;24578;48.264;11.436;2022-08-19T07:17:14;95698.91;;;18.29;100.00
13604;BME280;24578;48.264;11.436;2022-08-19T07:20:14;95701.72;;;18.28;100.00
13604;BME280;24578;48.264;11.436;2022-08-19T07:23:14;95700.56;;;18.22;100.00
13604;BME280;24578;48.264;11.436;2022-08-19T07:26:16;95692.88;;;18.29;100.00
13604;BME280;24578;48.264;11.436;2022-08-19T07:29:17;95690.84;;;18.39;100.00
13604;BME280;24578;48.264;11.436;2022-08-19T07:32:19;95685.03;;;18.52;100.00
13604;BME280;24578;48.264;11.436;2022-08-19T07:35:19;95676.66;;;18.56;100.00
13604;BME280;24578;48.264;11.436;2022-08-19T07:38:20;95681.16;;;18.63;100.00
13604;BME280;24578;48.264;11.436;2022-08-19T07:41:21;95676.88;;;18.70;100.00
13604;BME280;24578;48.264;11.436;2022-08-19T07:44:22;95670.69;;;18.86;100.00
13604;BME280;24578;48.264;11.436;2022-08-19T07:47:23;95665.31;;;19.02;100.00
13604;BME280;24578;48.264;11.436;2022-08-19T07:50:23;95664.13;;;19.28;100.00
13604;BME280;24578;48.264;11.436;2022-08-19T07:53:24;95666.72;;;19.43;100.00
13604;BME280;24578;48.264;11.436;2022-08-19T07:56:24;95673.63;;;19.59;100.00
13604;BME280;24578;48.264;11.436;2022-08-19T07:59:25;95675.06;;;19.62;100.00
13604;BME280;24578;48.264;11.436;2022-08-19T08:02:26;95669.81;;;19.62;100.00
13604;BME280;24578;48.264;11.436;2022-08-19T08:05:26;95668.34;;;19.74;100.00
13604;BME280;24578;48.264;11.436;2022-08-19T08:09:03;95670.09;;;19.97;100.00
13604;BME280;24578;48.264;11.436;2022-08-19T08:12:31;95672.38;;;20.00;100.00
13604;BME280;24578;48.264;11.436;2022-08-19T08:15:32;95674.72;;;19.95;100.00
13604;BME280;24578;48.264;11.436;2022-08-19T08:18:32;95678.50;;;19.77;100.00
13604;BME280;24578;48.264;11.436;2022-08-19T08:21:34;95676.97;;;19.68;100.00
13604;BME280;24578;48.264;11.436;2022-08-19T08:24:34;95677.25;;;19.58;100.00
13604;BME280;24578;48.264;11.436;2022-08-19T08:27:36;95677.31;;;19.50;100.00
13604;BME280;24578;48.264;11.436;2022-08-19T08:30:36;95683.47;;;19.42;100.00
13604;BME280;24578;48.264;11.436;2022-08-19T08:33:39;95694.22;;;19.32;100.00
13604;BME280;24578;48.264;11.436;2022-08-19T08:36:42;95701.19;;;19.25;100.00
13604;BME280;24578;48.264;11.436;2022-08-19T08:39:44;95697.63;;;19.18;100.00
13604;BME280;24578;48.264;11.436;2022-08-19T08:42:47;95695.56;;;19.13;100.00
13604;BME280;24578;48.264;11.436;2022-08-19T08:52:12;95707.38;;;19.09;100.00
13604;BME280;24578;48.264;11.436;2022-08-19T08:55:19;95710.66;;;19.11;100.00
13604;BME280;24578;48.264;11.436;2022-08-19T08:58:28;95711.28;;;19.13;100.00
13604;BME280;24578;48.264;11.436;2022-08-19T09:01:31;95722.66;;;19.06;100.00
13604;BME280;24578;48.264;11.436;2022-08-19T09:04:31;95715.97;;;19.03;100.00
13604;BME280;24578;48.264;11.436;2022-08-19T09:10:34;95717.06;;;19.09;100.00
13604;BME280;24578;48.264;11.436;2022-08-19T09:16:57;95723.31;;;19.46;100.00
13604;BME280;24578;48.264;11.436;2022-08-19T09:20:19;95721.78;;;19.52;100.00
13604;BME280;24578;48.264;11.436;2022-08-19T09:23:17;95717.78;;;19.56;100.00
13604;BME280;24578;48.264;11.436;2022-08-19T09:26:18;95716.13;;;19.55;100.00
13604;BME280;24578;48.264;11.436;2022-08-19T09:29:19;95721.69;;;19.60;100.00
13604;BME280;24578;48.264;11.436;2022-08-19T09:32:21;95720.03;;;19.59;100.00
13604;BME280;24578;48.264;11.436;2022-08-19T09:35:22;95726.22;;;19.66;100.00
13604;BME280;24578;48.264;11.436;2022-08-19T09:38:23;95719.44;;;19.72;100.00
13604;BME280;24578;48.264;11.436;2022-08-19T09:41:24;95719.50;;;19.63;100.00
13604;BME280;24578;48.264;11.436;2022-08-19T09:44:24;95723.13;;;19.47;100.00
13604;BME280;24578;48.264;11.436;2022-08-19T09:47:25;95724.81;;;19.40;100.00
13604;BME280;24578;48.264;11.436;2022-08-19T09:50:25;95726.88;;;19.30;100.00
13604;BME280;24578;48.264;11.436;2022-08-19T09:53:26;95724.25;;;19.30;100.00
13604;BME280;24578;48.264;11.436;2022-08-19T09:56:26;95722.38;;;19.39;100.00
13604;BME280;24578;48.264;11.436;2022-08-19T09:59:26;95725.47;;;19.42;100.00
13604;BME280;24578;48.264;11.436;2022-08-19T10:02:27;95725.25;;;19.29;100.00
13604;BME280;24578;48.264;11.436;2022-08-19T10:05:27;95725.59;;;19.26;100.00
13604;BME280;24578;48.264;11.436;2022-08-19T10:08:46;95723.47;;;19.29;100.00
13604;BME280;24578;48.264;11.436;2022-08-19T10:11:47;95720.84;;;19.29;100.00
13604;BME280;24578;48.264;11.436;2022-08-19T10:14:49;95721.00;;;19.28;100.00
13604;BME280;24578;48.264;11.436;2022-08-19T10:17:51;95719.13;;;19.37;100.00
13604;BME280;24578;48.264;11.436;2022-08-19T10:20:52;95725.38;;;19.51;100.00
13604;BME280;24578;48.264;11.436;2022-08-19T10:23:54;95730.91;;;19.71;100.00
13604;BME280;24578;48.264;11.436;2022-08-19T10:26:56;95733.53;;;19.86;100.00
13604;BME280;24578;48.264;11.436;2022-08-19T10:29:57;95735.41;;;20.00;100.00
13604;BME280;24578;48.264;11.436;2022-08-19T10:32:57;95732.38;;;20.03;100.00
13604;BME280;24578;48.264;11.436;2022-08-19T10:36:04;95727.47;;;20.15;100.00
13604;BME280;24578;48.264;11.436;2022-08-19T10:39:06;95726.41;;;20.10;100.00
13604;BME280;24578;48.264;11.436;2022-08-19T10:42:06;95727.19;;;20.25;100.00
13604;BME280;24578;48.264;11.436;2022-08-19T10:45:07;95723.78;;;20.46;100.00
13604;BME280;24578;48.264;11.436;2022-08-19T10:48:09;95717.41;;;20.92;100.00
13604;BME280;24578;48.264;11.436;2022-08-19T10:51:09;95712.38;;;21.19;100.00
13604;BME280;24578;48.264;11.436;2022-08-19T10:54:28;95712.50;;;21.61;100.00
13604;BME280;24578;48.264;11.436;2022-08-19T10:57:47;95706.09;;;21.77;100.00
13604;BME280;24578;48.264;11.436;2022-08-19T11:00:57;95706.13;;;21.84;100.00
13604;BME280;24578;48.264;11.436;2022-08-19T11:03:59;95705.84;;;22.14;100.00
13604;BME280;24578;48.264;11.436;2022-08-19T11:07:00;95703.81;;;22.71;100.00
13604;BME280;24578;48.264;11.436;2022-08-19T11:10:00;95707.09;;;23.61;93.85
13604;BME280;24578;48.264;11.436;2022-08-19T11:13:01;95702.91;;;24.12;91.21
13604;BME280;24578;48.264;11.436;2022-08-19T11:19:02;95701.84;;;24.65;87.06
13604;BME280;24578;48.264;11.436;2022-08-19T11:22:02;95706.25;;;24.39;83.79
13604;BME280;24578;48.264;11.436;2022-08-19T11:25:03;95701.50;;;24.09;85.20
13604;BME280;24578;48.264;11.436;2022-08-19T11:28:04;95692.25;;;24.32;86.01
13604;BME280;24578;48.264;11.436;2022-08-19T11:31:09;95697.97;;;24.29;85.24
13604;BME280;24578;48.264;11.436;2022-08-19T11:34:10;95701.47;;;24.16;85.67
13604;BME280;24578;48.264;11.436;2022-08-19T11:37:11;95701.72;;;23.94;86.24
13604;BME280;24578;48.264;11.436;2022-08-19T11:40:11;95703.38;;;23.88;87.49
13604;BME280;24578;48.264;11.436;2022-08-19T11:43:12;95706.22;;;24.00;86.82
13604;BME280;24578;48.264;11.436;2022-08-19T11:46:12;95709.88;;;23.93;87.27
13604;BME280;24578;48.264;11.436;2022-08-19T11:49:14;95709.94;;;23.72;86.43
13604;BME280;24578;48.264;11.436;2022-08-19T11:52:15;95702.63;;;23.54;88.94
13604;BME280;24578;48.264;11.436;2022-08-19T11:55:15;95698.53;;;23.72;87.37
13604;BME280;24578;48.264;11.436;2022-08-19T11:58:16;95702.16;;;24.05;85.31
13604;BME280;24578;48.264;11.436;2022-08-19T12:01:18;95691.47;;;24.25;80.93
13604;BME280;24578;48.264;11.436;2022-08-19T12:04:19;95690.78;;;24.43;81.11
13604;BME280;24578;48.264;11.436;2022-08-19T12:07:19;95693.28;;;24.70;79.58
13604;BME280;24578;48.264;11.436;2022-08-19T12:10:19;95693.69;;;24.73;80.26
13604;BME280;24578;48.264;11.436;2022-08-19T12:13:19;95686.34;;;25.01;78.57
13604;BME280;24578;48.264;11.436;2022-08-19T12:16:21;95695.66;;;24.85;78.63
13604;BME280;24578;48.264;11.436;2022-08-19T12:19:22;95693.09;;;24.65;80.28
13604;BME280;24578;48.264;11.436;2022-08-19T12:22:24;95691.56;;;24.50;79.36
13604;BME280;24578;48.264;11.436;2022-08-19T12:25:24;95699.38;;;24.31;80.66
13604;BME280;24578;48.264;11.436;2022-08-19T12:28:25;95696.94;;;24.37;81.09
13604;BME280;24578;48.264;11.436;2022-08-19T12:31:26;95702.03;;;24.31;80.84
13604;BME280;24578;48.264;11.436;2022-08-19T12:34:28;95722.06;;;24.07;81.04
13604;BME280;24578;48.264;11.436;2022-08-19T12:37:32;95724.50;;;24.02;82.44
13604;BME280;24578;48.264;11.436;2022-08-19T12:40:32;95729.44;;;23.71;83.49
13604;BME280;24578;48.264;11.436;2022-08-19T12:43:33;95722.34;;;23.52;85.89
13604;BME280;24578;48.264;11.436;2022-08-19T12:46:34;95723.00;;;23.27;86.29
13604;BME280;24578;48.264;11.436;2022-08-19T12:49:35;95724.16;;;23.04;88.13
13604;BME280;24578;48.264;11.436;2022-08-19T12:52:36;95732.69;;;22.86;89.37
13604;BME280;24578;48.264;11.436;2022-08-19T12:55:37;95738.34;;;22.76;89.82
13604;BME280;24578;48.264;11.436;2022-08-19T12:58:37;95738.50;;;22.61;90.32
13604;BME280;24578;48.264;11.436;2022-08-19T13:01:37;95743.28;;;22.38;91.50
13604;BME280;24578;48.264;11.436;2022-08-19T13:04:37;95745.34;;;22.42;91.41
13604;BME280;24578;48.264;11.436;2022-08-19T13:07:40;95746.00;;;22.58;91.37
13604;BME280;24578;48.264;11.436;2022-08-19T13:10:40;95751.06;;;22.66;91.52
13604;BME280;24578;48.264;11.436;2022-08-19T13:13:41;95744.19;;;22.65;90.59
13604;BME280;24578;48.264;11.436;2022-08-19T13:16:42;95747.84;;;22.64;90.04
13604;BME280;24578;48.264;11.436;2022-08-19T13:19:43;95740.31;;;22.54;90.30
13604;BME280;24578;48.264;11.436;2022-08-19T13:22:43;95738.47;;;22.55;90.07
13604;BME280;24578;48.264;11.436;2022-08-19T13:25:44;95732.88;;;22.29;91.55
13604;BME280;24578;48.264;11.436;2022-08-19T13:28:44;95739.75;;;22.24;91.55
13604;BME280;24578;48.264;11.436;2022-08-19T13:32:03;95733.25;;;22.19;92.42
13604;BME280;24578;48.264;11.436;2022-08-19T13:35:22;95736.28;;;22.16;93.14
13604;BME280;24578;48.264;11.436;2022-08-19T13:38:26;95737.31;;;22.22;93.62
13604;BME280;24578;48.264;11.436;2022-08-19T13:41:27;95729.75;;;22.47;91.84
13604;BME280;24578;48.264;11.436;2022-08-19T13:44:27;95731.03;;;22.72;92.13
13604;BME280;24578;48.264;11.436;2022-08-19T13:47:30;95731.91;;;23.53;89.03
13604;BME280;24578;48.264;11.436;2022-08-19T13:50:30;95725.22;;;24.29;83.79
13604;BME280;24578;48.264;11.436;2022-08-19T13:53:31;95716.31;;;24.62;79.75
13604;BME280;24578;48.264;11.436;2022-08-19T13:56:31;95722.31;;;24.44;80.29
13604;BME280;24578;48.264;11.436;2022-08-19T13:59:31;95715.97;;;23.93;82.38
13604;BME280;24578;48.264;11.436;2022-08-19T14:02:32;95718.06;;;23.64;82.34
13604;BME280;24578;48.264;11.436;2022-08-19T14:05:33;95723.16;;;23.52;83.13
13604;BME280;24578;48.264;11.436;2022-08-19T14:08:33;95718.09;;;23.37;84.45
13604;BME280;24578;48.264;11.436;2022-08-19T14:11:33;95716.25;;;23.31;84.69
13604;BME280;24578;48.264;11.436;2022-08-19T14:14:37;95717.28;;;23.50;83.13
13604;BME280;24578;48.264;11.436;2022-08-19T14:17:38;95719.31;;;23.48;84.76
13604;BME280;24578;48.264;11.436;2022-08-19T14:20:38;95720.31;;;23.54;83.49
13604;BME280;24578;48.264;11.436;2022-08-19T14:23:39;95717.44;;;23.82;82.55
13604;BME280;24578;48.264;11.436;2022-08-19T14:26:39;95711.19;;;24.29;81.09
13604;BME280;24578;48.264;11.436;2022-08-19T14:29:39;95716.66;;;24.34;79.05
13604;BME280;24578;48.264;11.436;2022-08-19T14:32:39;95722.94;;;24.40;79.56
13604;BME280;24578;48.264;11.436;2022-08-19T14:35:40;95736.66;;;24.16;79.61
13604;BME280;24578;48.264;11.436;2022-08-19T14:38:45;95740.00;;;23.71;82.36
13604;BME280;24578;48.264;11.436;2022-08-19T14:41:45;95750.81;;;23.36;85.25
13604;BME280;24578;48.264;11.436;2022-08-19T14:44:45;95754.41;;;23.15;85.94
13604;BME280;24578;48.264;11.436;2022-08-19T14:47:46;95762.16;;;23.23;85.68
13604;BME280;24578;48.264;11.436;2022-08-19T14:50:46;95762.91;;;22.97;85.86
13604;BME280;24578;48.264;11.436;2022-08-19T14:53:46;95771.34;;;22.52;87.59
13604;BME280;24578;48.264;11.436;2022-08-19T14:56:48;95768.72;;;22.17;90.19
13604;BME280;24578;48.264;11.436;2022-08-19T14:59:48;95766.22;;;22.02;90.81
13604;BME280;24578;48.264;11.436;2022-08-19T15:02:49;95768.28;;;22.07;92.28
13604;BME280;24578;48.264;11.436;2022-08-19T15:05:49;95759.00;;;22.17;91.02
13604;BME280;24578;48.264;11.436;2022-08-19T15:08:49;95766.09;;;22.17;91.46
13604;BME280;24578;48.264;11.436;2022-08-19T15:11:51;95770.72;;;22.15;90.74
13604;BME280;24578;48.264;11.436;2022-08-19T15:14:51;95764.75;;;21.93;91.37
13604;BME280;24578;48.264;11.436;2022-08-19T15:17:52;95767.63;;;21.98;92.30
13604;BME280;24578;48.264;11.436;2022-08-19T15:20:52;95773.25;;;21.95;92.14
13604;BME280;24578;48.264;11.436;2022-08-19T15:23:52;95773.81;;;21.83;93.11
13604;BME280;24578;48.264;11.436;2022-08-19T15:26:53;95773.53;;;21.71;93.01
13604;BME280;24578;48.264;11.436;2022-08-19T15:29:55;95772.56;;;21.57;94.60
13604;BME280;24578;48.264;11.436;2022-08-19T15:32:57;95779.31;;;21.60;94.06
13604;BME280;24578;48.264;11.436;2022-08-19T15:35:58;95772.22;;;21.60;94.98
13604;BME280;24578;48.264;11.436;2022-08-19T15:38:59;95768.13;;;21.58;95.36
13604;BME280;24578;48.264;11.436;2022-08-19T15:41:59;95773.78;;;21.55;93.92
13604;BME280;24578;48.264;11.436;2022-08-19T15:45:00;95771.19;;;21.33;94.96
13604;BME280;24578;48.264;11.436;2022-08-19T15:48:01;95773.16;;;21.24;96.64
13604;BME280;24578;48.264;11.436;2022-08-19T15:51:02;95787.09;;;21.03;96.84
13604;BME280;24578;48.264;11.436;2022-08-19T15:54:03;95784.41;;;20.96;98.41
13604;BME280;24578;48.264;11.436;2022-08-19T15:57:04;95784.41;;;20.96;99.06